Sheboygan, Wisconsin
Current Conditions -  °F | °C
As of 11:53 AM on Saturday 22 Nov 2014 (Local Time) from KSBM Reporting Station
Overcast Overcast  
Wind Chill: 33°   Ceiling: 900
Heat Index: 41°   Visibility: 7mi
Dew Point: 36°   Wind: 14mph
Humidity: 82%   Direction: 220°SW
Pressure: 29.83"   Gusts: NA
Location:  43.76°N, 87.72°W
Report Text: KSBM 221753Z AUTO 22012KT 7SM OVC009 05/02 A2983 RMK AO2 SLP110 T00500022 10050 20011 58023
Loading
Personal Weather Stations






























Interactive Weather Map New forecast layout! Learn more

10-Day Weather Forecast

Advertisements
Track Severe Weather on mobile